Time;durP1;ratioP1;P1;durP2;ratioP2;P2;SDS_P1;SDS_P2;PMS_P1;PMS_P2;Temp;Humidity;BMP_temperature;BMP_pressure;BME280_temperature;BME280_humidity;BME280_pressure;Samples;Min_cycle;Max_cycle;Signal;HPM_P1;HPM_P2
2022/01/25 00:26:41;;;;;;;67.70;38.60;;;;;;;-8.06;61.51;101703.91;5084849;28;20539;-21
2022/01/25 00:31:32;;;;;;;25.90;13.27;;;;;;;-8.25;60.30;101679.63;5086693;28;20032;-21
2022/01/25 00:33:58;;;;;;;27.67;11.73;;;;;;;-8.07;60.23;101707.38;5086509;28;20097;-21
2022/01/25 00:36:25;;;;;;;28.85;12.45;;;;;;;-8.08;61.39;101711.72;5086742;28;20039;-21
2022/01/25 00:38:51;;;;;;;31.27;11.68;;;;;;;-8.58;61.70;101683.47;5085136;28;20492;-21
2022/01/25 00:41:16;;;;;;;26.98;11.73;;;;;;;-8.36;61.52;101708.50;5085653;28;20575;-21
2022/01/25 00:43:42;;;;;;;24.05;11.35;;;;;;;-8.93;61.28;101669.19;5086372;28;20033;-21
2022/01/25 00:46:10;;;;;;;23.08;11.10;;;;;;;-8.80;62.21;101713.56;5086660;28;20040;-21
2022/01/25 00:56:40;;;;;;;27.88;11.38;;;;;;;-8.92;62.55;101705.34;5066401;28;20408;-22
2022/01/25 00:59:07;;;;;;;25.15;10.82;;;;;;;-9.04;62.65;101694.59;5090115;28;20023;-21
2022/01/25 01:01:33;;;;;;;22.27;10.68;;;;;;;-9.14;63.11;101684.53;5088607;28;20119;-21
2022/01/25 01:03:58;;;;;;;25.73;10.70;;;;;;;-9.14;63.00;101683.72;5089472;28;20028;-22
2022/01/25 01:06:24;;;;;;;26.65;12.70;;;;;;;-8.75;62.71;101696.97;5090147;28;20060;-21
2022/01/25 01:08:50;;;;;;;125.63;65.88;;;;;;;-8.45;62.06;101703.69;5090215;28;20065;-21
2022/01/25 01:11:21;;;;;;;93.90;55.55;;;;;;;-9.27;63.02;101651.41;5090224;28;20036;-21
2022/01/25 01:13:56;;;;;;;32.33;18.73;;;;;;;-9.07;64.23;101699.84;5088478;28;20838;-21
2022/01/25 01:45:47;;;;;;;18.77;8.27;;;;;;;-9.22;62.21;101677.97;5089168;28;19961;-21
2022/01/25 01:48:27;;;;;;;21.42;9.65;;;;;;;-9.36;60.89;101684.41;5088042;28;20023;-21
2022/01/25 01:50:53;;;;;;;23.25;10.43;;;;;;;-9.24;62.87;101677.16;5073166;28;20099;-21
2022/01/25 01:53:18;;;;;;;22.73;10.48;;;;;;;-9.27;62.54;101672.09;5089145;28;20024;-21
2022/01/25 01:55:44;;;;;;;24.02;11.32;;;;;;;-9.56;62.48;101668.72;5070743;28;20059;-21
2022/01/25 01:58:09;;;;;;;23.83;10.68;;;;;;;-9.93;63.16;101668.19;5087311;28;20035;-21
2022/01/25 02:00:40;;;;;;;67.78;26.65;;;;;;;-9.95;64.55;101669.13;5088879;28;20035;-23
2022/01/25 02:03:06;;;;;;;42.13;18.63;;;;;;;-9.77;63.40;101645.31;5088052;28;20495;-21
2022/01/25 02:05:31;;;;;;;43.53;20.35;;;;;;;-9.81;63.57;101641.13;5087499;28;20035;-21
2022/01/25 02:07:57;;;;;;;32.50;13.02;;;;;;;-9.94;63.58;101660.50;5087114;28;20020;-22
2022/01/25 02:10:22;;;;;;;22.90;10.75;;;;;;;-10.53;64.08;101633.06;5088748;28;20058;-22
2022/01/25 02:12:50;;;;;;;28.48;10.95;;;;;;;-10.72;64.72;101654.22;5088429;28;20441;-21
2022/01/25 02:15:16;;;;;;;21.23;10.80;;;;;;;-10.52;64.80;101658.81;5071011;28;20038;-21
2022/01/25 02:23:14;;;;;;;34.95;16.70;;;;;;;-9.73;63.12;101669.28;5087895;28;20538;-22
2022/01/25 02:25:39;;;;;;;28.70;15.95;;;;;;;-9.60;62.70;101638.75;5088405;28;20071;-21
2022/01/25 02:28:05;;;;;;;21.60;10.30;;;;;;;-9.49;62.94;101636.66;5087955;28;20039;-21
2022/01/25 02:30:30;;;;;;;20.27;9.98;;;;;;;-9.50;62.86;101616.88;5088338;28;20043;-21
2022/01/25 02:32:56;;;;;;;18.67;8.70;;;;;;;-9.19;63.24;101633.91;5088299;28;20028;-21
2022/01/25 02:35:21;;;;;;;18.05;8.85;;;;;;;-9.04;61.95;101622.22;5070013;28;20089;-21
2022/01/25 02:37:47;;;;;;;21.75;9.13;;;;;;;-9.07;61.37;101636.09;5088299;28;20039;-22
2022/01/25 02:40:12;;;;;;;17.35;8.13;;;;;;;-9.42;61.77;101622.63;5088054;28;20028;-21
2022/01/25 02:42:38;;;;;;;18.55;8.35;;;;;;;-10.18;62.80;101619.06;5088648;28;20039;-22
2022/01/25 02:45:03;;;;;;;19.85;8.57;;;;;;;-10.42;63.12;101637.91;5088048;28;20439;-21
2022/01/25 02:50:13;;;;;;;25.83;10.35;;;;;;;-10.47;63.40;101624.31;5087698;28;20062;-22
2022/01/25 02:52:38;;;;;;;24.70;11.55;;;;;;;-10.32;62.85;101621.25;5088191;28;20480;-21
2022/01/25 02:55:04;;;;;;;22.33;11.18;;;;;;;-10.58;64.66;101617.75;5087914;28;20684;-21
2022/01/25 02:57:29;;;;;;;26.52;12.98;;;;;;;-10.15;62.70;101619.00;5088009;28;20027;-21
2022/01/25 02:59:55;;;;;;;24.80;11.85;;;;;;;-10.40;63.62;101600.88;5087735;28;20024;-21
2022/01/25 03:02:20;;;;;;;21.75;10.02;;;;;;;-10.18;62.75;101613.91;5087674;28;20039;-21
2022/01/25 03:04:46;;;;;;;28.60;11.65;;;;;;;-10.52;64.03;101612.41;5085969;28;20032;-21
2022/01/25 03:07:11;;;;;;;29.13;12.10;;;;;;;-10.97;64.74;101594.81;5087579;28;20040;-21
2022/01/25 03:09:37;;;;;;;26.83;11.95;;;;;;;-10.89;65.63;101571.38;5069508;28;20035;-22
2022/01/25 03:12:06;;;;;;;26.58;11.60;;;;;;;-10.24;63.50;101585.72;5087204;28;20039;-21
2022/01/25 03:14:34;;;;;;;;;;;;;;;-10.20;62.61;101596.81;5087997;28;20032;-21
2022/01/25 03:22:30;;;;;;;43.75;20.83;;;;;;;-9.88;62.90;101559.63;5087500;28;20496;-21
2022/01/25 03:24:55;;;;;;;43.85;19.45;;;;;;;-10.05;63.66;101561.91;5087199;28;20052;-22
2022/01/25 03:27:21;;;;;;;42.75;19.50;;;;;;;-9.98;62.82;101591.81;5086182;28;20520;-21
2022/01/25 03:29:46;;;;;;;37.40;16.80;;;;;;;-9.66;62.53;101584.72;5086911;28;20109;-21
2022/01/25 03:32:11;;;;;;;26.83;12.93;;;;;;;-10.22;63.44;101571.03;5087431;28;20484;-21
2022/01/25 03:34:37;;;;;;;29.35;12.85;;;;;;;-9.74;63.64;101562.59;5087692;28;20047;-22
2022/01/25 03:37:03;;;;;;;25.83;11.23;;;;;;;-10.00;63.29;101554.88;5087163;28;20035;-21
2022/01/25 03:39:28;;;;;;;24.02;10.45;;;;;;;-10.03;63.04;101539.47;5087244;28;20028;-21
2022/01/25 03:41:54;;;;;;;28.00;13.40;;;;;;;-9.36;60.92;101539.75;5068747;28;20023;-21
2022/01/25 03:44:19;;;;;;;31.23;14.98;;;;;;;-9.28;60.75;101543.81;5086853;28;20483;-21
2022/01/25 03:51:57;;;;;;;32.13;14.60;;;;;;;-9.27;61.11;101563.56;5086791;28;20046;-22
2022/01/25 03:54:22;;;;;;;27.80;14.05;;;;;;;-9.72;60.94;101557.41;5086645;28;20027;-21
2022/01/25 03:56:47;;;;;;;56.60;26.00;;;;;;;-9.41;60.85;101536.50;5085503;28;20039;-22
2022/01/25 03:59:13;;;;;;;25.10;12.02;;;;;;;-9.66;60.89;101546.00;5086861;28;20094;-21
2022/01/25 04:01:38;;;;;;;40.30;15.85;;;;;;;-9.79;61.73;101546.41;5087237;28;20036;-21
2022/01/25 04:04:08;;;;;;;56.25;28.50;;;;;;;-9.34;61.58;101561.19;5086728;28;20028;-21
2022/01/25 04:06:35;;;;;;;53.58;24.48;;;;;;;-9.34;61.45;101553.44;5086659;28;20472;-22
2022/01/25 04:09:05;;;;;;;53.42;25.00;;;;;;;-9.17;61.09;101562.38;5086865;28;20046;-22
2022/01/25 04:11:31;;;;;;;49.03;25.08;;;;;;;-9.41;61.42;101544.25;5086795;28;20121;-22
2022/01/25 04:13:58;;;;;;;218.60;74.53;;;;;;;-9.35;60.31;101551.78;5086691;28;20059;-21
2022/01/25 04:16:31;;;;;;;300.20;106.47;;;;;;;-9.47;60.80;101564.28;5086723;28;20063;-21
2022/01/25 04:19:04;;;;;;;181.55;78.95;;;;;;;-9.57;61.43;101581.84;5085565;28;20039;-21
2022/01/25 04:26:41;;;;;;;38.40;18.85;;;;;;;-9.19;60.18;101564.13;5088969;28;20387;-21
2022/01/25 04:29:07;;;;;;;23.75;11.05;;;;;;;-9.34;59.55;101563.78;5089092;28;20028;-22
2022/01/25 04:31:34;;;;;;;20.48;10.27;;;;;;;-9.72;60.71;101567.72;5090575;28;20508;-22
2022/01/25 04:53:19;;;;;;;21.33;11.25;;;;;;;-9.60;62.53;101550.94;5089809;28;20031;-21
2022/01/25 04:56:00;;;;;;;21.05;10.40;;;;;;;-9.42;62.16;101539.97;5090061;28;20031;-21
2022/01/25 04:58:37;;;;;;;19.90;8.57;;;;;;;-9.23;61.30;101535.00;5090021;28;20501;-21
2022/01/25 05:01:03;;;;;;;16.58;7.72;;;;;;;-9.10;60.64;101553.47;5090181;28;20028;-21
2022/01/25 05:03:41;;;;;;;19.70;8.50;;;;;;;-9.12;60.38;101542.34;5089711;28;20035;-21
2022/01/25 05:06:13;;;;;;;16.88;7.88;;;;;;;-9.24;59.88;101553.97;5089864;28;20032;-21
2022/01/25 05:08:47;;;;;;;21.77;8.57;;;;;;;-8.94;60.07;101562.34;5090100;28;20803;-21
2022/01/25 05:11:22;;;;;;;20.75;7.90;;;;;;;-9.36;60.19;101560.41;5089768;28;20035;-22
2022/01/25 05:16:28;;;;;;;27.75;12.73;;;;;;;-9.73;61.80;101556.53;5089860;28;20495;-21
2022/01/25 05:19:05;;;;;;;36.72;15.80;;;;;;;-9.51;62.28;101555.81;5089894;28;20085;-22
2022/01/25 05:24:14;;;;;;;63.00;26.27;;;;;;;-9.71;61.64;101528.91;5089535;28;20115;-22
2022/01/25 05:26:40;;;;;;;51.88;23.02;;;;;;;-10.06;63.57;101513.78;5089616;28;20131;-21
2022/01/25 05:29:05;;;;;;;33.55;16.02;;;;;;;-9.87;62.52;101532.09;5089661;28;20036;-25
2022/01/25 05:31:31;;;;;;;25.52;11.90;;;;;;;-9.55;61.38;101536.16;5089661;28;20039;-22
2022/01/25 05:33:56;;;;;;;24.85;11.05;;;;;;;-9.72;63.25;101522.09;5089358;28;20039;-21
2022/01/25 05:36:22;;;;;;;27.65;12.55;;;;;;;-9.77;62.21;101523.97;5089380;28;20031;-22
2022/01/25 05:38:47;;;;;;;28.20;14.20;;;;;;;-9.90;62.53;101525.28;5087742;28;20039;-21
2022/01/25 05:41:14;;;;;;;69.50;30.95;;;;;;;-10.13;61.81;101501.09;5089236;28;20032;-22
2022/01/25 05:46:20;;;;;;;40.42;18.73;;;;;;;-10.38;61.24;101536.34;5089236;28;20040;-21
2022/01/25 05:48:47;;;;;;;52.90;23.65;;;;;;;-10.28;61.40;101548.03;5089046;28;20637;-21
2022/01/25 05:51:12;;;;;;;29.48;14.48;;;;;;;-11.03;61.89;101516.81;5088893;28;20024;-21
2022/01/25 05:53:40;;;;;;;37.53;17.02;;;;;;;-10.54;62.43;101529.09;5089156;28;20050;-21
2022/01/25 05:56:05;;;;;;;37.70;17.45;;;;;;;-10.28;61.81;101540.28;5088758;28;20042;-21
2022/01/25 05:58:31;;;;;;;35.55;15.50;;;;;;;-10.67;61.52;101519.22;5089215;28;20431;-22
2022/01/25 06:00:56;;;;;;;25.77;12.20;;;;;;;-10.52;61.46;101505.81;5088872;28;20093;-21
2022/01/25 06:03:22;;;;;;;21.25;10.07;;;;;;;-11.54;62.64;101520.88;5088705;28;20492;-21
2022/01/25 06:05:47;;;;;;;23.77;10.30;;;;;;;-11.65;63.96;101528.00;5088659;28;20065;-21
2022/01/25 06:08:13;;;;;;;19.08;8.52;;;;;;;-11.74;64.00;101527.38;5088605;28;20472;-21
2022/01/25 06:10:38;;;;;;;19.63;8.38;;;;;;;-11.22;63.04;101537.13;5089001;28;20098;-21
2022/01/25 06:13:04;;;;;;;19.17;8.43;;;;;;;-10.45;63.24;101533.13;5088912;28;20036;-22
2022/01/25 06:15:29;;;;;;;22.10;9.40;;;;;;;-10.42;62.91;101512.41;5088536;28;20031;-22
2022/01/25 06:17:55;;;;;;;25.85;9.93;;;;;;;-10.71;63.70;101508.13;5086952;28;20465;-22
2022/01/25 06:20:20;;;;;;;59.13;36.58;;;;;;;-10.33;63.14;101511.25;5088298;28;20109;-21
2022/01/25 06:22:46;;;;;;;48.45;27.73;;;;;;;-9.86;63.40;101508.81;5088048;28;20702;-21
2022/01/25 06:25:11;;;;;;;43.67;23.05;;;;;;;-10.16;63.40;101526.97;5088189;28;20145;-22
2022/01/25 06:27:39;;;;;;;31.58;14.63;;;;;;;-10.11;62.94;101514.78;5088026;28;20030;-22
2022/01/25 06:30:07;;;;;;;23.98;11.18;;;;;;;-10.12;63.55;101512.25;5088078;28;20032;-22
2022/01/25 06:32:32;;;;;;;17.85;9.32;;;;;;;-10.08;63.21;101526.75;5088082;28;20056;-21
2022/01/25 06:34:58;;;;;;;22.30;9.95;;;;;;;-10.24;64.20;101528.97;5087944;28;20039;-21
2022/01/25 06:37:23;;;;;;;21.23;9.40;;;;;;;-9.66;63.15;101528.78;5087834;28;20035;-21
2022/01/25 06:39:49;;;;;;;23.35;10.65;;;;;;;-8.90;61.74;101496.72;5088070;28;20081;-21
2022/01/25 06:42:15;;;;;;;22.70;10.40;;;;;;;-8.95;62.16;101528.81;5088092;28;20123;-22
2022/01/25 06:44:40;;;;;;;23.55;12.07;;;;;;;-8.73;62.43;101523.66;5088199;28;20411;-21
2022/01/25 06:47:06;;;;;;;25.63;11.80;;;;;;;-8.75;62.37;101490.09;5088035;28;20024;-21
2022/01/25 06:49:31;;;;;;;23.75;10.18;;;;;;;-8.24;61.84;101523.44;5087494;28;20024;-21
2022/01/25 06:51:58;;;;;;;20.33;9.60;;;;;;;-8.26;61.59;101513.16;5087363;28;20039;-21
2022/01/25 06:54:23;;;;;;;24.67;11.60;;;;;;;-8.35;61.67;101498.84;5087869;28;20028;-22
2022/01/25 06:56:49;;;;;;;26.58;14.20;;;;;;;-8.23;61.39;101513.03;5086484;28;20035;-22
2022/01/25 06:59:15;;;;;;;24.30;11.00;;;;;;;-8.26;61.91;101518.31;5087619;28;20032;-21
2022/01/25 07:01:41;;;;;;;29.90;16.60;;;;;;;-8.32;62.46;101505.63;5087619;28;20035;-21
2022/01/25 07:04:06;;;;;;;30.85;16.42;;;;;;;-8.17;62.39;101523.16;5087208;28;20028;-21
2022/01/25 07:06:31;;;;;;;26.50;12.55;;;;;;;-8.35;62.41;101500.59;5087067;28;20032;-22
2022/01/25 07:08:58;;;;;;;26.80;12.43;;;;;;;-8.14;62.85;101512.66;5087613;28;20384;-21
2022/01/25 07:11:23;;;;;;;26.48;11.55;;;;;;;-7.67;62.34;101517.56;5087598;28;20621;-21
2022/01/25 07:13:49;;;;;;;27.38;13.57;;;;;;;-7.39;61.07;101520.75;5087364;28;20036;-23
2022/01/25 07:16:15;;;;;;;27.95;13.02;;;;;;;-6.82;60.68;101520.75;5086082;28;20039;-22
2022/01/25 07:18:40;;;;;;;44.15;18.88;;;;;;;-6.36;59.35;101495.22;5087509;28;20036;-21
2022/01/25 07:21:06;;;;;;;21.35;10.35;;;;;;;-6.22;58.19;101495.38;5087095;28;20036;-21
2022/01/25 07:23:31;;;;;;;20.65;10.50;;;;;;;-6.10;57.96;101499.97;5087123;28;20140;-22
2022/01/25 07:25:57;;;;;;;23.70;11.40;;;;;;;-5.93;58.37;101503.47;5086652;28;20089;-22
2022/01/25 07:28:22;;;;;;;26.10;10.18;;;;;;;-5.59;57.33;101496.56;5087158;28;20057;-21
2022/01/25 07:30:48;;;;;;;30.85;13.52;;;;;;;-5.49;57.30;101490.78;5087236;28;20024;-22
2022/01/25 07:33:15;;;;;;;21.60;10.27;;;;;;;-6.06;57.29;101444.38;5087034;28;20067;-22
2022/01/25 07:35:40;;;;;;;28.85;13.20;;;;;;;-5.98;58.50;101480.34;5086784;28;20063;-21
2022/01/25 07:38:06;;;;;;;23.50;11.35;;;;;;;-5.95;56.93;101471.56;5087058;28;20057;-21
2022/01/25 07:40:34;;;;;;;23.00;11.43;;;;;;;-5.61;56.93;101469.81;5087454;28;20111;-22
2022/01/25 07:42:59;;;;;;;24.63;11.98;;;;;;;-5.36;55.80;101492.75;5086988;28;20050;-22
2022/01/25 07:45:25;;;;;;;22.58;10.80;;;;;;;-5.21;55.92;101484.13;5086943;28;20028;-23
2022/01/25 07:47:50;;;;;;;32.25;14.10;;;;;;;-5.03;55.82;101471.88;5086511;28;20020;-21
2022/01/25 07:50:16;;;;;;;27.33;12.20;;;;;;;-4.70;54.85;101495.22;5087059;28;20483;-21
2022/01/25 07:52:41;;;;;;;19.98;10.43;;;;;;;-4.62;54.09;101502.59;5085691;28;20061;-22
2022/01/25 07:55:07;;;;;;;22.10;11.30;;;;;;;-4.89;55.10;101471.97;5085449;28;20059;-21
2022/01/25 07:57:33;;;;;;;29.92;14.60;;;;;;;-4.62;55.18;101499.16;5086672;28;20028;-21
2022/01/25 07:59:59;;;;;;;30.83;13.02;;;;;;;-4.58;54.06;101485.03;5086186;28;20038;-22
2022/01/25 08:02:24;;;;;;;23.42;11.93;;;;;;;-4.30;54.38;101489.53;5086344;28;20409;-21
2022/01/25 08:04:50;;;;;;;31.70;17.40;;;;;;;-4.45;54.56;101457.41;5086430;28;20024;-21
2022/01/25 08:07:15;;;;;;;42.72;23.10;;;;;;;-4.01;53.27;101466.16;5086527;28;20078;-21
2022/01/25 08:09:41;;;;;;;86.93;57.67;;;;;;;-3.85;52.88;101477.38;5085706;28;20031;-21
2022/01/25 08:12:07;;;;;;;132.50;76.07;;;;;;;-3.58;53.26;101474.03;5086540;28;20407;-21
2022/01/25 08:14:32;;;;;;;55.97;33.00;;;;;;;-3.38;53.52;101481.50;5086630;28;20024;-21
2022/01/25 08:16:58;;;;;;;132.30;71.03;;;;;;;-3.65;54.15;101479.63;5085248;28;20032;-21
2022/01/25 08:19:23;;;;;;;71.65;39.78;;;;;;;-3.53;53.82;101461.56;5086494;28;20028;-21
2022/01/25 08:21:48;;;;;;;73.35;39.58;;;;;;;-3.63;54.17;101462.13;5086518;28;20066;-21
2022/01/25 08:24:15;;;;;;;72.13;33.22;;;;;;;-3.18;51.49;101464.63;5086661;28;20093;-22
2022/01/25 08:26:41;;;;;;;46.42;21.98;;;;;;;-2.53;51.25;101479.66;5086204;28;20055;-20
2022/01/25 08:29:07;;;;;;;39.58;23.55;;;;;;;-2.61;51.45;101476.69;5086510;28;20075;-22
2022/01/25 08:31:33;;;;;;;25.38;12.85;;;;;;;-2.28;49.32;101483.28;5086277;28;20020;-22
2022/01/25 08:33:58;;;;;;;23.38;11.82;;;;;;;-2.50;50.83;101453.31;5086206;28;20020;-22
2022/01/25 08:36:24;;;;;;;45.80;25.67;;;;;;;-2.29;50.66;101471.13;5086755;28;20082;-21
2022/01/25 08:38:49;;;;;;;28.58;15.07;;;;;;;-2.06;51.29;101470.47;5086486;28;20443;-22
2022/01/25 08:41:15;;;;;;;51.25;28.48;;;;;;;-1.74;49.79;101477.91;5086470;28;20081;-21
2022/01/25 08:43:40;;;;;;;32.67;22.08;;;;;;;-1.93;51.28;101475.69;5086375;28;20415;-21
2022/01/25 08:46:07;;;;;;;28.73;13.80;;;;;;;-1.79;49.60;101448.63;5086289;28;20036;-21
2022/01/25 08:48:32;;;;;;;23.70;12.50;;;;;;;-1.88;49.79;101441.38;5086658;28;20032;-21
2022/01/25 08:50:58;;;;;;;23.25;12.32;;;;;;;-1.72;50.04;101438.56;5087451;28;20031;-21
2022/01/25 08:53:24;;;;;;;27.35;13.77;;;;;;;-1.53;49.83;101465.16;5087301;28;20101;-21
2022/01/25 08:55:49;;;;;;;29.58;18.00;;;;;;;-1.51;49.45;101465.03;5087043;28;20024;-21
2022/01/25 08:58:15;;;;;;;26.17;14.57;;;;;;;-1.20;50.05;101449.81;5087633;28;20035;-22
2022/01/25 09:00:40;;;;;;;30.48;16.02;;;;;;;-0.98;49.34;101449.09;5087220;28;20036;-21
2022/01/25 09:03:06;;;;;;;29.00;15.15;;;;;;;-0.63;48.94;101450.03;5085866;28;20427;-21
2022/01/25 09:05:31;;;;;;;32.53;15.95;;;;;;;-0.53;49.41;101439.72;5086397;28;20032;-21
2022/01/25 09:07:58;;;;;;;26.98;13.68;;;;;;;-0.52;49.58;101420.41;5086050;28;20028;-21
2022/01/25 09:10:26;;;;;;;25.83;14.25;;;;;;;-0.12;49.09;101443.66;5086098;28;20063;-22
2022/01/25 09:12:52;;;;;;;29.63;18.33;;;;;;;-0.27;49.07;101426.44;5087147;28;20089;-21
2022/01/25 09:15:17;;;;;;;42.05;20.45;;;;;;;-0.01;48.81;101412.19;5089811;28;20036;-22
2022/01/25 09:17:43;;;;;;;28.88;17.25;;;;;;;0.21;49.63;101418.44;5089845;28;20068;-24
2022/01/25 09:20:09;;;;;;;26.83;14.88;;;;;;;0.22;47.69;101422.72;5089758;28;20028;-21
2022/01/25 09:22:34;;;;;;;30.75;17.85;;;;;;;0.48;48.46;101419.88;5089482;28;20137;-21
2022/01/25 09:25:00;;;;;;;113.70;64.88;;;;;;;0.83;47.75;101416.25;5089959;28;20670;-20
2022/01/25 09:27:26;;;;;;;75.53;51.92;;;;;;;0.52;48.07;101395.06;5089420;28;20044;-22
2022/01/25 09:29:51;;;;;;;26.75;15.18;;;;;;;0.45;47.03;101407.84;5089511;28;20032;-21
2022/01/25 09:32:19;;;;;;;27.85;13.82;;;;;;;0.52;47.26;101400.31;5089338;28;20028;-21
2022/01/25 09:34:45;;;;;;;29.48;15.05;;;;;;;0.73;46.84;101361.84;5089503;28;20058;-21
2022/01/25 09:37:10;;;;;;;28.45;14.30;;;;;;;0.65;46.47;101385.25;5089654;28;20030;-21
2022/01/25 09:39:36;;;;;;;21.48;12.27;;;;;;;1.02;47.31;101381.47;5089241;28;20040;-21
2022/01/25 09:42:03;;;;;;;22.45;12.52;;;;;;;1.29;46.37;101383.63;5088880;28;20032;-21
2022/01/25 09:44:29;;;;;;;24.87;12.27;;;;;;;1.08;45.99;101365.19;5089298;28;20028;-21
2022/01/25 09:46:56;;;;;;;23.23;12.27;;;;;;;1.22;46.96;101382.47;5087546;28;20024;-21
2022/01/25 09:49:21;;;;;;;38.35;20.85;;;;;;;1.77;48.02;101372.63;5087778;28;20032;-21
2022/01/25 09:51:47;;;;;;;30.25;21.48;;;;;;;1.82;46.79;101365.19;5088994;28;20035;-21
2022/01/25 09:54:12;;;;;;;30.75;18.35;;;;;;;1.96;45.49;101362.22;5087559;28;20039;-21
2022/01/25 09:56:38;;;;;;;25.00;13.32;;;;;;;1.74;44.50;101362.38;5087694;28;20035;-21
2022/01/25 09:59:03;;;;;;;21.33;10.98;;;;;;;0.80;44.84;101347.28;5088883;28;20089;-21
2022/01/25 10:01:30;;;;;;;21.08;10.60;;;;;;;1.02;45.01;101337.63;5088753;28;20059;-22
2022/01/25 10:03:55;;;;;;;18.58;9.30;;;;;;;0.71;44.10;101329.63;5088708;28;20157;-22
2022/01/25 10:06:22;;;;;;;21.05;10.00;;;;;;;0.82;44.06;101343.66;5088903;28;20547;-22
2022/01/25 10:08:52;;;;;;;20.70;10.15;;;;;;;1.17;42.43;101318.00;5088677;28;20040;-21
2022/01/25 10:11:22;;;;;;;24.80;12.10;;;;;;;0.76;42.84;101327.47;5088660;28;20039;-22
2022/01/25 10:13:54;;;;;;;21.75;11.18;;;;;;;0.86;44.52;101331.97;5088539;28;20111;-21
2022/01/25 10:16:43;;;;;;;22.27;10.18;;;;;;;1.19;44.16;101313.44;5088768;28;20032;-21
2022/01/25 10:19:13;;;;;;;16.73;9.07;;;;;;;1.55;42.39;101321.00;5088253;28;20042;-21
2022/01/25 10:21:48;;;;;;;17.67;9.98;;;;;;;2.13;42.38;101323.13;5088472;28;20036;-21
2022/01/25 10:24:15;;;;;;;18.92;10.23;;;;;;;2.42;41.53;101329.28;5087482;28;20039;-21
2022/01/25 10:26:51;;;;;;;17.30;9.27;;;;;;;2.48;41.00;101319.19;5088631;28;20056;-20
2022/01/25 10:29:24;;;;;;;18.58;10.05;;;;;;;2.80;41.13;101326.88;5088593;28;20077;-21
2022/01/25 10:31:52;;;;;;;19.10;10.45;;;;;;;3.17;37.33;101310.38;5088172;28;20028;-21
2022/01/25 10:34:22;;;;;;;;;;;;;;;3.14;36.38;101311.47;5087361;28;20042;-21
2022/01/25 10:36:49;;;;;;;17.25;9.13;;;;;;;3.26;38.19;101308.69;5086567;28;20375;-21
2022/01/25 10:39:31;;;;;;;18.70;10.85;;;;;;;2.76;38.34;101296.50;5088240;28;20039;-21
2022/01/25 10:42:03;;;;;;;15.60;9.18;;;;;;;2.72;38.99;101301.22;5087938;28;20024;-21
2022/01/25 10:44:52;;;;;;;14.88;7.47;;;;;;;2.57;39.19;101287.59;5087843;28;20035;-22
2022/01/25 10:47:19;;;;;;;17.73;9.10;;;;;;;3.20;37.02;101289.81;5087569;28;20020;-21
2022/01/25 10:49:46;;;;;;;17.33;8.50;;;;;;;2.84;38.37;101282.63;5087793;28;20028;-21
2022/01/25 10:52:11;;;;;;;15.32;9.57;;;;;;;2.32;37.81;101283.69;5087932;28;20032;-21
2022/01/25 10:54:40;;;;;;;18.58;8.95;;;;;;;2.73;37.17;101266.00;5086240;28;20058;-21
2022/01/25 10:57:26;;;;;;;16.80;9.13;;;;;;;2.93;37.50;101264.19;5087780;28;20032;-22
2022/01/25 10:59:59;;;;;;;11.45;6.90;;;;;;;2.20;36.97;101263.69;5086134;28;20556;-21
2022/01/25 11:02:25;;;;;;;15.32;7.45;;;;;;;1.87;36.54;101246.44;5087904;28;20028;-20
2022/01/25 11:04:52;;;;;;;15.40;7.90;;;;;;;2.00;36.34;101237.34;5087746;28;20090;-21
2022/01/25 11:07:17;;;;;;;13.75;7.80;;;;;;;2.53;35.67;101232.72;5087572;28;20059;-21
2022/01/25 11:09:46;;;;;;;14.13;7.50;;;;;;;3.03;35.32;101253.66;5087227;28;20581;-21
2022/01/25 11:12:15;;;;;;;13.27;7.13;;;;;;;2.56;35.90;101219.28;5087080;28;20031;-21
2022/01/25 11:14:51;;;;;;;13.43;7.53;;;;;;;2.50;36.06;101227.72;5087372;28;20044;-21
2022/01/25 11:17:17;;;;;;;14.80;8.38;;;;;;;2.91;35.23;101220.53;5087467;28;20028;-21
2022/01/25 11:19:43;;;;;;;16.75;8.23;;;;;;;2.66;36.63;101228.03;5087380;28;20024;-21
2022/01/25 11:22:12;;;;;;;28.88;14.45;;;;;;;2.57;36.30;101218.28;5087158;28;20035;-21
2022/01/25 11:24:38;;;;;;;25.00;14.38;;;;;;;2.33;36.32;101201.13;5086950;28;20539;-21
2022/01/25 11:27:05;;;;;;;20.67;11.00;;;;;;;2.88;37.71;101199.69;5068874;28;20172;-21
2022/01/25 11:29:35;;;;;;;17.80;9.07;;;;;;;3.07;36.53;101204.13;5087362;28;20077;-22
2022/01/25 11:32:10;;;;;;;16.65;9.73;;;;;;;3.54;37.57;101186.50;5069271;28;20036;-21
2022/01/25 11:34:36;;;;;;;16.77;9.98;;;;;;;3.55;36.21;101201.31;5087115;28;20036;-21
2022/01/25 11:37:04;;;;;;;19.20;10.10;;;;;;;3.94;35.73;101185.34;5085628;28;20588;-22
2022/01/25 11:39:30;;;;;;;20.05;11.30;;;;;;;4.67;36.45;101204.69;5087013;28;20105;-21
2022/01/25 11:42:11;;;;;;;17.60;11.60;;;;;;;4.69;35.06;101198.25;5086882;28;20555;-21
2022/01/25 11:44:48;;;;;;;18.73;11.23;;;;;;;5.37;36.28;101187.00;5087284;28;20048;-21
2022/01/25 11:47:16;;;;;;;16.35;9.30;;;;;;;5.29;33.00;101178.19;5087260;28;20111;-21
2022/01/25 11:49:51;;;;;;;;;;;;;;;5.53;34.98;101191.53;5087252;28;20632;-21
2022/01/25 11:52:16;;;;;;;17.80;9.98;;;;;;;4.61;35.76;101166.47;5086717;28;19947;-20
2022/01/25 11:54:43;;;;;;;16.10;9.20;;;;;;;4.42;34.20;101189.44;5087013;28;20038;-21
2022/01/25 11:57:16;;;;;;;16.63;9.93;;;;;;;4.54;34.16;101186.59;5086748;28;20081;-21
2022/01/25 11:59:42;;;;;;;16.25;9.32;;;;;;;4.25;37.16;101185.00;5086548;28;20450;-21
2022/01/25 12:02:08;;;;;;;17.00;10.05;;;;;;;4.52;34.17;101164.78;5085280;28;20032;-21
2022/01/25 12:04:33;;;;;;;16.35;9.15;;;;;;;3.97;34.59;101171.81;5086599;28;20028;-22
2022/01/25 12:07:12;;;;;;;18.02;9.82;;;;;;;3.91;36.02;101171.59;5086883;28;20032;-21
2022/01/25 12:10:01;;;;;;;19.30;10.05;;;;;;;4.21;35.80;101162.50;5086963;28;20104;-21
2022/01/25 12:12:27;;;;;;;18.63;9.85;;;;;;;4.43;35.93;101167.34;5086708;28;20062;-22
2022/01/25 12:14:55;;;;;;;19.92;10.38;;;;;;;6.05;36.05;101169.44;5086594;28;20492;-30
2022/01/25 12:17:25;;;;;;;20.55;11.68;;;;;;;6.63;33.89;101173.78;5086554;28;20036;-21
2022/01/25 12:19:58;;;;;;;34.67;15.25;;;;;;;5.54;31.89;101169.41;5086628;28;20032;-21
2022/01/25 12:22:33;;;;;;;16.42;10.63;;;;;;;6.06;33.76;101144.59;5086470;28;20097;-21
2022/01/25 12:25:06;;;;;;;21.25;12.10;;;;;;;7.17;32.62;101160.00;5086411;28;20530;-21
2022/01/25 12:27:58;;;;;;;24.77;14.63;;;;;;;7.06;32.13;101144.41;5086500;28;20028;-20
2022/01/25 12:30:26;;;;;;;26.75;15.68;;;;;;;6.78;31.65;101152.75;5086611;28;20479;-20
2022/01/25 12:32:55;;;;;;;;;;;;;;;6.41;31.08;101140.81;5086892;28;20550;-21
2022/01/25 12:35:37;;;;;;;19.50;11.48;;;;;;;7.18;32.27;101129.78;5086582;28;19912;-20
2022/01/25 12:38:05;;;;;;;26.27;15.45;;;;;;;7.11;30.84;101138.59;5086625;28;20166;-21
2022/01/25 12:40:33;;;;;;;17.67;10.97;;;;;;;6.40;30.47;101133.88;5085465;28;20080;-21
2022/01/25 12:43:06;;;;;;;20.35;12.75;;;;;;;6.64;28.64;101132.22;5086574;28;20024;-21
2022/01/25 12:45:43;;;;;;;17.25;9.73;;;;;;;6.02;29.44;101117.59;5086473;28;20446;-21
2022/01/25 12:48:10;;;;;;;20.05;9.90;;;;;;;5.39;30.77;101128.63;5087766;28;20032;-21
2022/01/25 12:50:44;;;;;;;23.63;12.35;;;;;;;5.55;31.03;101120.75;5090600;28;20527;-23
2022/01/25 12:53:15;;;;;;;20.52;12.88;;;;;;;5.72;30.40;101097.84;5090316;28;20024;-21
2022/01/25 12:55:44;;;;;;;22.33;12.57;;;;;;;6.43;30.51;101120.28;5090047;28;20462;-21
2022/01/25 12:58:09;;;;;;;18.83;12.63;;;;;;;6.82;28.81;101087.81;5089886;28;20036;-21
2022/01/25 13:00:45;;;;;;;19.05;11.25;;;;;;;6.62;28.10;101108.53;5089865;28;20510;-21
2022/01/25 13:03:50;;;;;;;17.85;10.52;;;;;;;6.76;28.98;101120.28;5090274;28;20678;-21
2022/01/25 13:06:20;;;;;;;23.65;13.23;;;;;;;7.74;27.42;101102.34;5089266;28;20505;-21
2022/01/25 13:09:22;;;;;;;17.02;9.20;;;;;;;7.95;26.36;101094.59;5089806;28;20066;-21
2022/01/25 13:17:14;;;;;;;18.10;11.38;;;;;;;8.95;27.55;101095.41;5089950;28;20028;-21
2022/01/25 13:19:51;;;;;;;17.15;10.10;;;;;;;9.21;25.66;101089.63;5089862;28;20031;-21